sensor_id;sensor_type;location;lat;lon;timestamp;temperature;humidity
15481;DHT22;7842;50.904;6.670;2023-06-14T00:01:53;20.50;99.90
15481;DHT22;7842;50.904;6.670;2023-06-14T00:04:19;20.40;99.90
15481;DHT22;7842;50.904;6.670;2023-06-14T00:06:46;20.30;99.90
15481;DHT22;7842;50.904;6.670;2023-06-14T00:09:12;20.30;99.90
15481;DHT22;7842;50.904;6.670;2023-06-14T00:11:39;20.20;99.90
15481;DHT22;7842;50.904;6.670;2023-06-14T00:14:05;20.10;99.90
15481;DHT22;7842;50.904;6.670;2023-06-14T00:16:31;20.10;99.90
15481;DHT22;7842;50.904;6.670;2023-06-14T00:18:59;20.10;99.90
15481;DHT22;7842;50.904;6.670;2023-06-14T00:21:24;20.00;99.90
15481;DHT22;7842;50.904;6.670;2023-06-14T00:23:50;19.90;99.90
15481;DHT22;7842;50.904;6.670;2023-06-14T00:26:16;19.90;99.90
15481;DHT22;7842;50.904;6.670;2023-06-14T00:28:41;19.80;99.90
15481;DHT22;7842;50.904;6.670;2023-06-14T00:31:07;19.90;99.90
15481;DHT22;7842;50.904;6.670;2023-06-14T00:33:33;19.60;99.90
15481;DHT22;7842;50.904;6.670;2023-06-14T00:35:59;19.70;99.90
15481;DHT22;7842;50.904;6.670;2023-06-14T00:38:24;19.40;99.90
15481;DHT22;7842;50.904;6.670;2023-06-14T00:40:50;19.30;99.90
15481;DHT22;7842;50.904;6.670;2023-06-14T00:43:16;19.30;99.90
15481;DHT22;7842;50.904;6.670;2023-06-14T00:45:41;19.20;99.90
15481;DHT22;7842;50.904;6.670;2023-06-14T00:48:08;19.10;99.90
15481;DHT22;7842;50.904;6.670;2023-06-14T00:50:35;19.10;99.90
15481;DHT22;7842;50.904;6.670;2023-06-14T00:53:01;19.20;99.90
15481;DHT22;7842;50.904;6.670;2023-06-14T00:55:27;19.20;99.90
15481;DHT22;7842;50.904;6.670;2023-06-14T00:57:55;19.20;99.90
15481;DHT22;7842;50.904;6.670;2023-06-14T01:00:21;19.20;99.90
15481;DHT22;7842;50.904;6.670;2023-06-14T01:02:47;19.20;99.90
15481;DHT22;7842;50.904;6.670;2023-06-14T01:05:14;19.20;99.90
15481;DHT22;7842;50.904;6.670;2023-06-14T01:10:35;19.20;99.90
15481;DHT22;7842;50.904;6.670;2023-06-14T01:23:02;19.20;99.90
15481;DHT22;7842;50.904;6.670;2023-06-14T01:25:27;19.20;99.90
15481;DHT22;7842;50.904;6.670;2023-06-14T01:27:57;19.10;99.90
15481;DHT22;7842;50.904;6.670;2023-06-14T01:30:24;18.90;99.90
15481;DHT22;7842;50.904;6.670;2023-06-14T01:32:51;19.20;99.90
15481;DHT22;7842;50.904;6.670;2023-06-14T01:35:18;18.80;99.90
15481;DHT22;7842;50.904;6.670;2023-06-14T01:37:44;18.90;99.90
15481;DHT22;7842;50.904;6.670;2023-06-14T01:54:53;18.60;99.90
15481;DHT22;7842;50.904;6.670;2023-06-14T01:57:19;18.50;99.90
15481;DHT22;7842;50.904;6.670;2023-06-14T01:59:46;18.40;99.90
15481;DHT22;7842;50.904;6.670;2023-06-14T02:02:13;18.30;99.90
15481;DHT22;7842;50.904;6.670;2023-06-14T02:04:39;18.40;99.90
15481;DHT22;7842;50.904;6.670;2023-06-14T02:07:05;18.30;99.90
15481;DHT22;7842;50.904;6.670;2023-06-14T02:09:30;18.30;99.90
15481;DHT22;7842;50.904;6.670;2023-06-14T02:11:56;18.30;99.90
15481;DHT22;7842;50.904;6.670;2023-06-14T02:14:22;18.20;99.90
15481;DHT22;7842;50.904;6.670;2023-06-14T02:16:48;18.20;99.90
15481;DHT22;7842;50.904;6.670;2023-06-14T02:19:18;18.20;99.90
15481;DHT22;7842;50.904;6.670;2023-06-14T02:21:44;18.20;99.90
15481;DHT22;7842;50.904;6.670;2023-06-14T02:24:10;18.10;99.90
15481;DHT22;7842;50.904;6.670;2023-06-14T02:26:36;18.10;99.90
15481;DHT22;7842;50.904;6.670;2023-06-14T02:29:07;18.10;99.90
15481;DHT22;7842;50.904;6.670;2023-06-14T02:31:35;18.10;99.90
15481;DHT22;7842;50.904;6.670;2023-06-14T02:34:01;18.20;99.90
15481;DHT22;7842;50.904;6.670;2023-06-14T02:36:27;18.20;99.90
15481;DHT22;7842;50.904;6.670;2023-06-14T02:38:55;18.20;99.90
15481;DHT22;7842;50.904;6.670;2023-06-14T02:41:25;18.20;99.90
15481;DHT22;7842;50.904;6.670;2023-06-14T02:43:52;18.20;99.90
15481;DHT22;7842;50.904;6.670;2023-06-14T02:46:17;18.10;99.90
15481;DHT22;7842;50.904;6.670;2023-06-14T02:48:43;18.20;99.90
15481;DHT22;7842;50.904;6.670;2023-06-14T02:51:09;18.00;99.90
15481;DHT22;7842;50.904;6.670;2023-06-14T03:23:01;17.80;99.90
15481;DHT22;7842;50.904;6.670;2023-06-14T03:25:30;17.60;99.90
15481;DHT22;7842;50.904;6.670;2023-06-14T03:27:57;17.60;99.90
15481;DHT22;7842;50.904;6.670;2023-06-14T03:30:23;17.60;99.90
15481;DHT22;7842;50.904;6.670;2023-06-14T03:32:48;17.50;99.90
15481;DHT22;7842;50.904;6.670;2023-06-14T03:37:47;17.60;99.90
15481;DHT22;7842;50.904;6.670;2023-06-14T03:40:14;17.60;99.90
15481;DHT22;7842;50.904;6.670;2023-06-14T03:42:40;17.60;99.90
15481;DHT22;7842;50.904;6.670;2023-06-14T03:45:06;17.60;99.90
15481;DHT22;7842;50.904;6.670;2023-06-14T03:47:33;17.60;99.90
15481;DHT22;7842;50.904;6.670;2023-06-14T03:49:59;17.70;99.90
15481;DHT22;7842;50.904;6.670;2023-06-14T03:52:25;17.80;99.90
15481;DHT22;7842;50.904;6.670;2023-06-14T03:54:54;18.00;99.90
15481;DHT22;7842;50.904;6.670;2023-06-14T03:57:21;17.80;99.90
15481;DHT22;7842;50.904;6.670;2023-06-14T03:59:47;17.90;99.90
15481;DHT22;7842;50.904;6.670;2023-06-14T04:02:12;18.00;99.90
15481;DHT22;7842;50.904;6.670;2023-06-14T04:04:42;18.10;99.90
15481;DHT22;7842;50.904;6.670;2023-06-14T04:07:16;18.20;99.90
15481;DHT22;7842;50.904;6.670;2023-06-14T04:09:45;18.40;99.90
15481;DHT22;7842;50.904;6.670;2023-06-14T04:12:11;18.50;99.90
15481;DHT22;7842;50.904;6.670;2023-06-14T04:14:40;18.60;99.90
15481;DHT22;7842;50.904;6.670;2023-06-14T04:17:06;18.80;99.90
15481;DHT22;7842;50.904;6.670;2023-06-14T04:19:32;19.10;99.90
15481;DHT22;7842;50.904;6.670;2023-06-14T04:21:58;19.50;99.90
15481;DHT22;7842;50.904;6.670;2023-06-14T04:24:26;19.80;99.90
15481;DHT22;7842;50.904;6.670;2023-06-14T04:26:58;20.10;99.90
15481;DHT22;7842;50.904;6.670;2023-06-14T04:29:24;20.40;99.90
15481;DHT22;7842;50.904;6.670;2023-06-14T04:31:53;20.70;99.90
15481;DHT22;7842;50.904;6.670;2023-06-14T04:34:20;20.90;99.90
15481;DHT22;7842;50.904;6.670;2023-06-14T04:36:47;21.20;99.90
15481;DHT22;7842;50.904;6.670;2023-06-14T04:39:19;21.50;99.90
15481;DHT22;7842;50.904;6.670;2023-06-14T04:41:45;21.70;99.90
15481;DHT22;7842;50.904;6.670;2023-06-14T04:44:10;21.70;99.90
15481;DHT22;7842;50.904;6.670;2023-06-14T04:46:38;21.80;99.90
15481;DHT22;7842;50.904;6.670;2023-06-14T04:49:14;21.70;99.90
15481;DHT22;7842;50.904;6.670;2023-06-14T04:51:41;21.70;99.90
15481;DHT22;7842;50.904;6.670;2023-06-14T04:54:08;21.80;99.90
15481;DHT22;7842;50.904;6.670;2023-06-14T04:56:36;22.10;99.90
15481;DHT22;7842;50.904;6.670;2023-06-14T04:59:03;22.50;99.90
15481;DHT22;7842;50.904;6.670;2023-06-14T05:01:30;22.50;99.90
15481;DHT22;7842;50.904;6.670;2023-06-14T05:03:57;22.90;99.90
15481;DHT22;7842;50.904;6.670;2023-06-14T05:06:23;22.40;99.90
15481;DHT22;7842;50.904;6.670;2023-06-14T05:08:49;22.30;99.90
15481;DHT22;7842;50.904;6.670;2023-06-14T05:11:15;22.40;99.90
15481;DHT22;7842;50.904;6.670;2023-06-14T05:13:42;22.50;99.90
15481;DHT22;7842;50.904;6.670;2023-06-14T05:16:09;22.60;99.90
15481;DHT22;7842;50.904;6.670;2023-06-14T05:18:34;22.90;99.90
15481;DHT22;7842;50.904;6.670;2023-06-14T05:21:01;22.90;99.90
15481;DHT22;7842;50.904;6.670;2023-06-14T05:23:28;22.70;99.90
15481;DHT22;7842;50.904;6.670;2023-06-14T05:25:54;22.90;99.90
15481;DHT22;7842;50.904;6.670;2023-06-14T05:28:20;23.20;99.90
15481;DHT22;7842;50.904;6.670;2023-06-14T05:30:46;23.10;99.90
15481;DHT22;7842;50.904;6.670;2023-06-14T05:33:11;23.10;99.90
15481;DHT22;7842;50.904;6.670;2023-06-14T05:35:37;23.50;99.90
15481;DHT22;7842;50.904;6.670;2023-06-14T05:38:03;23.90;99.90
15481;DHT22;7842;50.904;6.670;2023-06-14T05:40:29;23.40;99.90
15481;DHT22;7842;50.904;6.670;2023-06-14T05:42:54;23.60;99.90
15481;DHT22;7842;50.904;6.670;2023-06-14T05:45:20;23.90;99.90
15481;DHT22;7842;50.904;6.670;2023-06-14T05:47:46;24.20;99.90
15481;DHT22;7842;50.904;6.670;2023-06-14T05:50:11;24.20;99.90
15481;DHT22;7842;50.904;6.670;2023-06-14T05:52:37;24.00;99.90
15481;DHT22;7842;50.904;6.670;2023-06-14T05:55:03;24.20;99.90
15481;DHT22;7842;50.904;6.670;2023-06-14T05:57:29;23.70;99.90
15481;DHT22;7842;50.904;6.670;2023-06-14T05:59:55;23.60;99.90
15481;DHT22;7842;50.904;6.670;2023-06-14T06:02:21;23.50;99.90
15481;DHT22;7842;50.904;6.670;2023-06-14T06:04:46;23.40;99.90
15481;DHT22;7842;50.904;6.670;2023-06-14T06:07:12;23.70;99.90
15481;DHT22;7842;50.904;6.670;2023-06-14T06:09:37;23.50;99.90
15481;DHT22;7842;50.904;6.670;2023-06-14T06:12:06;23.50;99.90
15481;DHT22;7842;50.904;6.670;2023-06-14T06:14:32;23.70;99.90
15481;DHT22;7842;50.904;6.670;2023-06-14T06:16:58;24.00;99.90
15481;DHT22;7842;50.904;6.670;2023-06-14T06:19:24;24.00;99.90
15481;DHT22;7842;50.904;6.670;2023-06-14T06:21:49;23.70;99.90
15481;DHT22;7842;50.904;6.670;2023-06-14T06:24:15;23.70;99.90
15481;DHT22;7842;50.904;6.670;2023-06-14T06:26:41;23.80;99.90
15481;DHT22;7842;50.904;6.670;2023-06-14T06:29:06;23.70;99.90
15481;DHT22;7842;50.904;6.670;2023-06-14T06:31:32;23.80;99.90
15481;DHT22;7842;50.904;6.670;2023-06-14T06:33:58;24.10;99.90
15481;DHT22;7842;50.904;6.670;2023-06-14T06:36:24;23.50;99.90
15481;DHT22;7842;50.904;6.670;2023-06-14T06:38:50;23.60;99.90
15481;DHT22;7842;50.904;6.670;2023-06-14T06:41:15;23.80;99.90
15481;DHT22;7842;50.904;6.670;2023-06-14T06:43:41;23.90;99.90
15481;DHT22;7842;50.904;6.670;2023-06-14T06:46:07;24.00;99.90
15481;DHT22;7842;50.904;6.670;2023-06-14T06:48:32;24.30;99.90
15481;DHT22;7842;50.904;6.670;2023-06-14T06:50:58;24.20;99.90
15481;DHT22;7842;50.904;6.670;2023-06-14T06:53:24;24.30;99.90
15481;DHT22;7842;50.904;6.670;2023-06-14T06:55:49;24.30;99.90
15481;DHT22;7842;50.904;6.670;2023-06-14T06:58:15;24.20;99.90
15481;DHT22;7842;50.904;6.670;2023-06-14T07:00:41;24.40;99.90
15481;DHT22;7842;50.904;6.670;2023-06-14T07:03:06;24.70;99.90
15481;DHT22;7842;50.904;6.670;2023-06-14T07:05:32;24.50;99.90
15481;DHT22;7842;50.904;6.670;2023-06-14T07:07:58;24.30;99.90
15481;DHT22;7842;50.904;6.670;2023-06-14T07:10:24;24.00;99.90
15481;DHT22;7842;50.904;6.670;2023-06-14T07:12:52;24.20;99.90
15481;DHT22;7842;50.904;6.670;2023-06-14T07:15:18;24.10;99.90
15481;DHT22;7842;50.904;6.670;2023-06-14T07:17:43;23.70;99.90
15481;DHT22;7842;50.904;6.670;2023-06-14T07:20:10;23.10;99.90
15481;DHT22;7842;50.904;6.670;2023-06-14T07:22:39;22.60;99.90
15481;DHT22;7842;50.904;6.670;2023-06-14T07:25:07;22.60;99.90
15481;DHT22;7842;50.904;6.670;2023-06-14T07:27:33;22.70;99.90
15481;DHT22;7842;50.904;6.670;2023-06-14T07:29:59;22.90;99.90
15481;DHT22;7842;50.904;6.670;2023-06-14T07:32:25;22.90;99.90
15481;DHT22;7842;50.904;6.670;2023-06-14T07:34:50;23.00;99.90
15481;DHT22;7842;50.904;6.670;2023-06-14T07:37:16;23.20;99.90
15481;DHT22;7842;50.904;6.670;2023-06-14T07:39:42;23.40;99.90
15481;DHT22;7842;50.904;6.670;2023-06-14T07:42:07;23.50;99.90
15481;DHT22;7842;50.904;6.670;2023-06-14T07:44:33;23.20;99.90
15481;DHT22;7842;50.904;6.670;2023-06-14T07:46:58;23.40;99.90
15481;DHT22;7842;50.904;6.670;2023-06-14T07:49:25;23.10;99.90
15481;DHT22;7842;50.904;6.670;2023-06-14T07:51:51;23.30;99.90
15481;DHT22;7842;50.904;6.670;2023-06-14T07:54:17;23.10;99.90
15481;DHT22;7842;50.904;6.670;2023-06-14T07:56:42;23.60;99.90
15481;DHT22;7842;50.904;6.670;2023-06-14T07:59:08;23.70;99.90
15481;DHT22;7842;50.904;6.670;2023-06-14T08:01:34;23.80;99.90
15481;DHT22;7842;50.904;6.670;2023-06-14T08:04:00;23.70;99.90
15481;DHT22;7842;50.904;6.670;2023-06-14T08:06:26;23.60;99.90
15481;DHT22;7842;50.904;6.670;2023-06-14T08:08:52;23.50;99.90
15481;DHT22;7842;50.904;6.670;2023-06-14T08:11:18;23.80;99.90
15481;DHT22;7842;50.904;6.670;2023-06-14T08:13:43;23.90;99.90
15481;DHT22;7842;50.904;6.670;2023-06-14T08:16:09;24.00;99.90
15481;DHT22;7842;50.904;6.670;2023-06-14T08:18:36;24.20;99.90
15481;DHT22;7842;50.904;6.670;2023-06-14T08:21:01;24.00;99.90
15481;DHT22;7842;50.904;6.670;2023-06-14T08:23:28;24.10;99.90
15481;DHT22;7842;50.904;6.670;2023-06-14T08:25:54;24.20;99.90
15481;DHT22;7842;50.904;6.670;2023-06-14T08:28:20;24.40;99.90
15481;DHT22;7842;50.904;6.670;2023-06-14T08:30:45;24.40;99.90
15481;DHT22;7842;50.904;6.670;2023-06-14T08:33:11;24.40;99.90
15481;DHT22;7842;50.904;6.670;2023-06-14T08:35:36;24.50;99.90
15481;DHT22;7842;50.904;6.670;2023-06-14T08:38:05;24.30;99.90
15481;DHT22;7842;50.904;6.670;2023-06-14T08:40:31;24.10;99.90
15481;DHT22;7842;50.904;6.670;2023-06-14T08:43:02;24.20;99.90
15481;DHT22;7842;50.904;6.670;2023-06-14T08:45:27;24.00;99.90
15481;DHT22;7842;50.904;6.670;2023-06-14T08:47:53;24.30;99.90
15481;DHT22;7842;50.904;6.670;2023-06-14T08:50:23;24.70;99.90
15481;DHT22;7842;50.904;6.670;2023-06-14T08:52:54;24.90;99.90
15481;DHT22;7842;50.904;6.670;2023-06-14T08:55:21;25.30;99.90
15481;DHT22;7842;50.904;6.670;2023-06-14T08:57:51;25.00;99.90
15481;DHT22;7842;50.904;6.670;2023-06-14T09:00:20;24.80;99.90
15481;DHT22;7842;50.904;6.670;2023-06-14T09:02:46;24.80;99.90
15481;DHT22;7842;50.904;6.670;2023-06-14T09:05:12;24.90;99.90
15481;DHT22;7842;50.904;6.670;2023-06-14T09:07:44;24.80;97.60
15481;DHT22;7842;50.904;6.670;2023-06-14T09:10:11;25.00;97.40
15481;DHT22;7842;50.904;6.670;2023-06-14T09:12:37;25.30;95.80
15481;DHT22;7842;50.904;6.670;2023-06-14T09:15:05;25.00;94.00
15481;DHT22;7842;50.904;6.670;2023-06-14T09:17:38;25.10;93.30
15481;DHT22;7842;50.904;6.670;2023-06-14T09:20:05;24.50;98.60
15481;DHT22;7842;50.904;6.670;2023-06-14T09:22:32;24.90;96.60
15481;DHT22;7842;50.904;6.670;2023-06-14T09:25:02;25.30;96.50
15481;DHT22;7842;50.904;6.670;2023-06-14T09:27:28;25.70;99.90
15481;DHT22;7842;50.904;6.670;2023-06-14T09:39:59;25.80;87.40
15481;DHT22;7842;50.904;6.670;2023-06-14T09:42:25;25.60;89.80
15481;DHT22;7842;50.904;6.670;2023-06-14T09:44:52;25.40;88.30
15481;DHT22;7842;50.904;6.670;2023-06-14T09:47:18;25.40;89.70
15481;DHT22;7842;50.904;6.670;2023-06-14T09:49:44;25.80;89.90
15481;DHT22;7842;50.904;6.670;2023-06-14T09:52:28;25.80;90.70
15481;DHT22;7842;50.904;6.670;2023-06-14T09:54:55;25.20;89.10
15481;DHT22;7842;50.904;6.670;2023-06-14T09:57:22;25.20;90.10
15481;DHT22;7842;50.904;6.670;2023-06-14T09:59:50;25.50;90.30
15481;DHT22;7842;50.904;6.670;2023-06-14T10:02:23;25.60;90.00
15481;DHT22;7842;50.904;6.670;2023-06-14T10:04:57;25.90;90.10
15481;DHT22;7842;50.904;6.670;2023-06-14T10:07:26;25.70;90.00
15481;DHT22;7842;50.904;6.670;2023-06-14T10:09:53;25.70;90.30
15481;DHT22;7842;50.904;6.670;2023-06-14T10:49:54;25.20;93.30
15481;DHT22;7842;50.904;6.670;2023-06-14T10:52:27;24.90;93.30
15481;DHT22;7842;50.904;6.670;2023-06-14T10:57:37;25.00;95.50
15481;DHT22;7842;50.904;6.670;2023-06-14T11:00:05;24.90;96.60
15481;DHT22;7842;50.904;6.670;2023-06-14T11:10:44;24.70;96.90
15481;DHT22;7842;50.904;6.670;2023-06-14T11:13:13;24.60;97.10
15481;DHT22;7842;50.904;6.670;2023-06-14T11:15:44;24.70;97.20
15481;DHT22;7842;50.904;6.670;2023-06-14T11:18:12;24.90;98.00
15481;DHT22;7842;50.904;6.670;2023-06-14T11:20:40;25.00;95.40
15481;DHT22;7842;50.904;6.670;2023-06-14T11:23:06;24.90;95.40
15481;DHT22;7842;50.904;6.670;2023-06-14T11:25:31;24.50;95.40
15481;DHT22;7842;50.904;6.670;2023-06-14T11:27:57;24.20;96.60
15481;DHT22;7842;50.904;6.670;2023-06-14T11:30:25;24.30;96.70
15481;DHT22;7842;50.904;6.670;2023-06-14T11:32:52;24.30;97.20
15481;DHT22;7842;50.904;6.670;2023-06-14T11:35:19;24.50;97.90
15481;DHT22;7842;50.904;6.670;2023-06-14T11:37:48;24.50;97.30
15481;DHT22;7842;50.904;6.670;2023-06-14T11:40:15;24.60;98.40
15481;DHT22;7842;50.904;6.670;2023-06-14T11:42:43;24.50;97.90
15481;DHT22;7842;50.904;6.670;2023-06-14T11:45:10;24.60;98.40
15481;DHT22;7842;50.904;6.670;2023-06-14T11:47:37;24.90;99.00
15481;DHT22;7842;50.904;6.670;2023-06-14T11:50:04;24.90;98.60
15481;DHT22;7842;50.904;6.670;2023-06-14T11:52:31;24.70;99.20
15481;DHT22;7842;50.904;6.670;2023-06-14T11:54:57;24.50;99.70
15481;DHT22;7842;50.904;6.670;2023-06-14T11:57:23;24.80;99.40
15481;DHT22;7842;50.904;6.670;2023-06-14T11:59:49;24.90;99.60
15481;DHT22;7842;50.904;6.670;2023-06-14T12:02:19;24.90;99.90
15481;DHT22;7842;50.904;6.670;2023-06-14T12:04:47;25.00;99.90
15481;DHT22;7842;50.904;6.670;2023-06-14T12:07:17;25.00;99.90
15481;DHT22;7842;50.904;6.670;2023-06-14T12:12:26;24.80;99.80
15481;DHT22;7842;50.904;6.670;2023-06-14T12:14:53;24.80;99.90
15481;DHT22;7842;50.904;6.670;2023-06-14T12:17:19;25.00;99.90
15481;DHT22;7842;50.904;6.670;2023-06-14T12:19:46;25.20;99.90
15481;DHT22;7842;50.904;6.670;2023-06-14T12:22:14;25.50;99.90
15481;DHT22;7842;50.904;6.670;2023-06-14T12:24:44;25.50;99.90
15481;DHT22;7842;50.904;6.670;2023-06-14T12:27:10;25.80;99.90
15481;DHT22;7842;50.904;6.670;2023-06-14T12:29:44;25.60;98.80
15481;DHT22;7842;50.904;6.670;2023-06-14T12:32:10;25.60;99.00
15481;DHT22;7842;50.904;6.670;2023-06-14T12:34:36;25.60;98.90
15481;DHT22;7842;50.904;6.670;2023-06-14T12:37:02;25.40;99.50
15481;DHT22;7842;50.904;6.670;2023-06-14T12:39:29;25.60;99.30
15481;DHT22;7842;50.904;6.670;2023-06-14T12:41:57;25.80;98.90
15481;DHT22;7842;50.904;6.670;2023-06-14T12:44:22;25.90;98.70
15481;DHT22;7842;50.904;6.670;2023-06-14T12:46:48;26.10;99.60
15481;DHT22;7842;50.904;6.670;2023-06-14T12:49:16;26.10;99.30
15481;DHT22;7842;50.904;6.670;2023-06-14T12:51:42;25.90;98.40
15481;DHT22;7842;50.904;6.670;2023-06-14T12:54:08;25.50;95.40
15481;DHT22;7842;50.904;6.670;2023-06-14T12:56:33;25.50;95.90
15481;DHT22;7842;50.904;6.670;2023-06-14T12:58:59;25.70;95.90
15481;DHT22;7842;50.904;6.670;2023-06-14T13:01:25;25.80;95.80
15481;DHT22;7842;50.904;6.670;2023-06-14T13:03:50;26.00;96.40
15481;DHT22;7842;50.904;6.670;2023-06-14T13:06:21;26.30;96.30
15481;DHT22;7842;50.904;6.670;2023-06-14T13:08:50;26.40;96.00
15481;DHT22;7842;50.904;6.670;2023-06-14T13:11:16;26.30;96.30
15481;DHT22;7842;50.904;6.670;2023-06-14T13:13:42;26.30;96.50
15481;DHT22;7842;50.904;6.670;2023-06-14T13:16:07;26.10;95.80
15481;DHT22;7842;50.904;6.670;2023-06-14T13:18:33;25.90;96.10
15481;DHT22;7842;50.904;6.670;2023-06-14T13:20:59;26.10;96.00
15481;DHT22;7842;50.904;6.670;2023-06-14T13:23:25;26.30;96.70
15481;DHT22;7842;50.904;6.670;2023-06-14T13:25:50;26.30;95.40
15481;DHT22;7842;50.904;6.670;2023-06-14T13:28:16;26.40;94.40
15481;DHT22;7842;50.904;6.670;2023-06-14T13:30:42;26.60;94.50
15481;DHT22;7842;50.904;6.670;2023-06-14T13:33:08;26.70;95.90
15481;DHT22;7842;50.904;6.670;2023-06-14T13:35:33;27.00;94.40
15481;DHT22;7842;50.904;6.670;2023-06-14T13:37:59;27.10;93.20
15481;DHT22;7842;50.904;6.670;2023-06-14T13:40:25;27.00;93.90
15481;DHT22;7842;50.904;6.670;2023-06-14T13:42:51;27.00;94.30
15481;DHT22;7842;50.904;6.670;2023-06-14T13:45:17;27.40;93.30
15481;DHT22;7842;50.904;6.670;2023-06-14T13:47:42;28.10;93.60
15481;DHT22;7842;50.904;6.670;2023-06-14T13:50:08;27.50;93.90
15481;DHT22;7842;50.904;6.670;2023-06-14T13:52:34;26.90;94.30
15481;DHT22;7842;50.904;6.670;2023-06-14T13:55:00;26.80;94.60
15481;DHT22;7842;50.904;6.670;2023-06-14T13:57:26;26.40;94.20
15481;DHT22;7842;50.904;6.670;2023-06-14T13:59:52;26.60;94.80
15481;DHT22;7842;50.904;6.670;2023-06-14T14:02:21;26.50;93.60
15481;DHT22;7842;50.904;6.670;2023-06-14T14:04:46;26.40;93.70
15481;DHT22;7842;50.904;6.670;2023-06-14T14:07:18;26.70;94.90
15481;DHT22;7842;50.904;6.670;2023-06-14T14:09:44;27.00;93.50
15481;DHT22;7842;50.904;6.670;2023-06-14T14:12:10;27.20;93.30
15481;DHT22;7842;50.904;6.670;2023-06-14T14:14:36;26.90;93.60
15481;DHT22;7842;50.904;6.670;2023-06-14T14:17:02;27.00;93.80
15481;DHT22;7842;50.904;6.670;2023-06-14T14:19:28;26.60;93.50
15481;DHT22;7842;50.904;6.670;2023-06-14T14:21:54;26.00;93.20
15481;DHT22;7842;50.904;6.670;2023-06-14T14:24:19;25.90;94.20
15481;DHT22;7842;50.904;6.670;2023-06-14T14:26:45;26.00;94.50
15481;DHT22;7842;50.904;6.670;2023-06-14T14:29:14;25.90;94.10
15481;DHT22;7842;50.904;6.670;2023-06-14T14:31:40;25.70;93.50
15481;DHT22;7842;50.904;6.670;2023-06-14T14:34:05;25.70;94.60
15481;DHT22;7842;50.904;6.670;2023-06-14T14:36:31;27.00;94.70
15481;DHT22;7842;50.904;6.670;2023-06-14T14:38:59;26.30;93.50
15481;DHT22;7842;50.904;6.670;2023-06-14T14:41:24;26.50;93.20
15481;DHT22;7842;50.904;6.670;2023-06-14T14:43:50;26.60;93.50
15481;DHT22;7842;50.904;6.670;2023-06-14T14:46:16;26.70;93.00
15481;DHT22;7842;50.904;6.670;2023-06-14T14:48:42;26.90;93.10
15481;DHT22;7842;50.904;6.670;2023-06-14T14:51:07;27.20;93.20
15481;DHT22;7842;50.904;6.670;2023-06-14T14:53:33;27.20;92.20
15481;DHT22;7842;50.904;6.670;2023-06-14T14:55:59;27.00;92.40
15481;DHT22;7842;50.904;6.670;2023-06-14T14:58:25;27.00;92.70
15481;DHT22;7842;50.904;6.670;2023-06-14T15:00:50;26.70;91.90
15481;DHT22;7842;50.904;6.670;2023-06-14T15:03:16;26.50;91.90
15481;DHT22;7842;50.904;6.670;2023-06-14T15:05:42;26.50;92.00
15481;DHT22;7842;50.904;6.670;2023-06-14T15:08:07;26.60;91.70
15481;DHT22;7842;50.904;6.670;2023-06-14T15:10:37;26.70;91.90
15481;DHT22;7842;50.904;6.670;2023-06-14T15:13:05;27.00;92.60
15481;DHT22;7842;50.904;6.670;2023-06-14T15:15:31;27.20;92.00
15481;DHT22;7842;50.904;6.670;2023-06-14T15:17:58;26.80;91.00
15481;DHT22;7842;50.904;6.670;2023-06-14T15:20:24;26.70;91.40
15481;DHT22;7842;50.904;6.670;2023-06-14T15:22:50;26.60;92.10
15481;DHT22;7842;50.904;6.670;2023-06-14T15:25:15;26.80;92.60
15481;DHT22;7842;50.904;6.670;2023-06-14T15:27:41;26.50;91.60
15481;DHT22;7842;50.904;6.670;2023-06-14T15:30:07;26.60;91.90
15481;DHT22;7842;50.904;6.670;2023-06-14T15:32:32;27.00;91.20
15481;DHT22;7842;50.904;6.670;2023-06-14T15:34:58;26.80;91.50
15481;DHT22;7842;50.904;6.670;2023-06-14T15:37:24;26.80;92.70
15481;DHT22;7842;50.904;6.670;2023-06-14T15:39:49;26.70;91.50
15481;DHT22;7842;50.904;6.670;2023-06-14T15:42:15;26.40;91.30
15481;DHT22;7842;50.904;6.670;2023-06-14T15:44:41;26.50;91.90
15481;DHT22;7842;50.904;6.670;2023-06-14T15:47:07;26.80;92.40
15481;DHT22;7842;50.904;6.670;2023-06-14T15:49:33;26.80;91.30
15481;DHT22;7842;50.904;6.670;2023-06-14T15:51:59;27.00;91.80
15481;DHT22;7842;50.904;6.670;2023-06-14T15:54:26;26.90;92.20
15481;DHT22;7842;50.904;6.670;2023-06-14T15:56:52;26.40;90.70
15481;DHT22;7842;50.904;6.670;2023-06-14T15:59:17;26.10;91.00
15481;DHT22;7842;50.904;6.670;2023-06-14T16:01:43;26.10;92.10
15481;DHT22;7842;50.904;6.670;2023-06-14T16:04:09;25.90;92.00
15481;DHT22;7842;50.904;6.670;2023-06-14T16:06:34;25.80;91.80
15481;DHT22;7842;50.904;6.670;2023-06-14T16:09:02;26.10;91.70
15481;DHT22;7842;50.904;6.670;2023-06-14T16:11:28;26.30;92.30
15481;DHT22;7842;50.904;6.670;2023-06-14T16:13:54;26.50;92.10
15481;DHT22;7842;50.904;6.670;2023-06-14T16:16:21;26.80;91.80
15481;DHT22;7842;50.904;6.670;2023-06-14T16:18:47;26.80;91.40
15481;DHT22;7842;50.904;6.670;2023-06-14T16:21:13;26.60;91.10
15481;DHT22;7842;50.904;6.670;2023-06-14T16:23:38;26.30;91.50
15481;DHT22;7842;50.904;6.670;2023-06-14T16:26:05;26.00;91.70
15481;DHT22;7842;50.904;6.670;2023-06-14T16:28:31;25.50;92.10
15481;DHT22;7842;50.904;6.670;2023-06-14T16:30:57;26.00;91.60
15481;DHT22;7842;50.904;6.670;2023-06-14T16:33:22;26.00;91.90
15481;DHT22;7842;50.904;6.670;2023-06-14T16:35:48;26.30;91.30
15481;DHT22;7842;50.904;6.670;2023-06-14T16:38:14;26.30;91.00
15481;DHT22;7842;50.904;6.670;2023-06-14T16:40:39;26.30;91.60
15481;DHT22;7842;50.904;6.670;2023-06-14T16:43:05;26.40;91.40
15481;DHT22;7842;50.904;6.670;2023-06-14T16:45:30;26.30;91.60
15481;DHT22;7842;50.904;6.670;2023-06-14T16:47:56;26.50;91.00
15481;DHT22;7842;50.904;6.670;2023-06-14T16:50:22;26.60;91.40
15481;DHT22;7842;50.904;6.670;2023-06-14T16:52:47;26.50;90.90
15481;DHT22;7842;50.904;6.670;2023-06-14T16:55:13;26.60;91.30
15481;DHT22;7842;50.904;6.670;2023-06-14T16:57:39;26.70;90.70
15481;DHT22;7842;50.904;6.670;2023-06-14T17:00:06;26.40;90.90
15481;DHT22;7842;50.904;6.670;2023-06-14T17:02:32;26.30;91.10
15481;DHT22;7842;50.904;6.670;2023-06-14T17:04:58;26.10;91.50
15481;DHT22;7842;50.904;6.670;2023-06-14T17:07:23;26.00;92.20
15481;DHT22;7842;50.904;6.670;2023-06-14T17:09:49;26.00;92.50
15481;DHT22;7842;50.904;6.670;2023-06-14T17:12:15;26.00;91.90
15481;DHT22;7842;50.904;6.670;2023-06-14T17:14:40;25.80;91.70
15481;DHT22;7842;50.904;6.670;2023-06-14T17:17:07;25.70;92.10
15481;DHT22;7842;50.904;6.670;2023-06-14T17:19:33;25.50;91.90
15481;DHT22;7842;50.904;6.670;2023-06-14T17:21:58;25.40;92.20
15481;DHT22;7842;50.904;6.670;2023-06-14T17:24:24;25.70;92.50
15481;DHT22;7842;50.904;6.670;2023-06-14T17:26:50;25.80;91.70
15481;DHT22;7842;50.904;6.670;2023-06-14T17:29:15;25.70;91.60
15481;DHT22;7842;50.904;6.670;2023-06-14T17:31:44;25.60;90.70
15481;DHT22;7842;50.904;6.670;2023-06-14T17:34:09;25.50;91.50
15481;DHT22;7842;50.904;6.670;2023-06-14T17:36:35;25.60;91.30
15481;DHT22;7842;50.904;6.670;2023-06-14T17:39:01;25.50;91.30
15481;DHT22;7842;50.904;6.670;2023-06-14T17:41:28;25.60;91.80